sensor_id;sensor_type;location;lat;lon;timestamp;temperature;humidity
21035;DHT22;10676;50.848;3.272;2023-08-08T00:01:37;14.30;99.90
21035;DHT22;10676;50.848;3.272;2023-08-08T00:04:02;14.30;99.90
21035;DHT22;10676;50.848;3.272;2023-08-08T00:06:28;14.20;99.90
21035;DHT22;10676;50.848;3.272;2023-08-08T00:08:54;14.20;99.90
21035;DHT22;10676;50.848;3.272;2023-08-08T00:11:25;14.20;99.90
21035;DHT22;10676;50.848;3.272;2023-08-08T00:13:50;14.20;99.90
21035;DHT22;10676;50.848;3.272;2023-08-08T00:16:16;14.20;99.90
21035;DHT22;10676;50.848;3.272;2023-08-08T00:18:42;14.10;99.90
21035;DHT22;10676;50.848;3.272;2023-08-08T00:21:10;14.10;99.90
21035;DHT22;10676;50.848;3.272;2023-08-08T00:23:37;14.10;99.90
21035;DHT22;10676;50.848;3.272;2023-08-08T00:26:03;14.10;99.90
21035;DHT22;10676;50.848;3.272;2023-08-08T00:28:29;14.20;99.90
21035;DHT22;10676;50.848;3.272;2023-08-08T00:30:55;14.10;99.90
21035;DHT22;10676;50.848;3.272;2023-08-08T00:33:21;14.10;99.90
21035;DHT22;10676;50.848;3.272;2023-08-08T00:35:47;14.10;99.90
21035;DHT22;10676;50.848;3.272;2023-08-08T00:38:12;14.10;99.90
21035;DHT22;10676;50.848;3.272;2023-08-08T00:40:38;14.20;99.90
21035;DHT22;10676;50.848;3.272;2023-08-08T00:43:04;14.20;99.90
21035;DHT22;10676;50.848;3.272;2023-08-08T00:45:30;14.20;99.90
21035;DHT22;10676;50.848;3.272;2023-08-08T00:47:56;14.20;99.90
21035;DHT22;10676;50.848;3.272;2023-08-08T00:50:21;14.20;99.90
21035;DHT22;10676;50.848;3.272;2023-08-08T00:52:48;14.20;99.90
21035;DHT22;10676;50.848;3.272;2023-08-08T00:55:14;14.20;99.90
21035;DHT22;10676;50.848;3.272;2023-08-08T00:57:40;14.20;99.90
21035;DHT22;10676;50.848;3.272;2023-08-08T01:00:07;14.20;99.90
21035;DHT22;10676;50.848;3.272;2023-08-08T01:02:35;14.20;99.90
21035;DHT22;10676;50.848;3.272;2023-08-08T01:05:02;14.20;99.90
21035;DHT22;10676;50.848;3.272;2023-08-08T07:32:58;21.10;99.90
21035;DHT22;10676;50.848;3.272;2023-08-08T07:35:24;22.80;99.90
21035;DHT22;10676;50.848;3.272;2023-08-08T07:37:51;23.30;99.90
21035;DHT22;10676;50.848;3.272;2023-08-08T07:40:17;23.60;99.90
21035;DHT22;10676;50.848;3.272;2023-08-08T07:42:44;23.90;99.90
21035;DHT22;10676;50.848;3.272;2023-08-08T07:45:15;24.20;99.90
21035;DHT22;10676;50.848;3.272;2023-08-08T07:47:41;24.60;99.90
21035;DHT22;10676;50.848;3.272;2023-08-08T07:50:31;25.30;99.90
21035;DHT22;10676;50.848;3.272;2023-08-08T07:52:56;26.40;99.90
21035;DHT22;10676;50.848;3.272;2023-08-08T07:55:29;26.50;99.90
21035;DHT22;10676;50.848;3.272;2023-08-08T07:57:56;26.20;99.90
21035;DHT22;10676;50.848;3.272;2023-08-08T08:00:23;25.80;99.90
21035;DHT22;10676;50.848;3.272;2023-08-08T08:02:49;25.40;99.90
21035;DHT22;10676;50.848;3.272;2023-08-08T08:05:15;25.20;99.90
21035;DHT22;10676;50.848;3.272;2023-08-08T08:07:41;25.30;99.90
21035;DHT22;10676;50.848;3.272;2023-08-08T08:10:10;25.30;99.90
21035;DHT22;10676;50.848;3.272;2023-08-08T08:12:39;25.20;99.90
21035;DHT22;10676;50.848;3.272;2023-08-08T08:15:05;25.00;99.90
21035;DHT22;10676;50.848;3.272;2023-08-08T08:17:31;24.90;99.90
21035;DHT22;10676;50.848;3.272;2023-08-08T08:19:57;24.90;99.90
21035;DHT22;10676;50.848;3.272;2023-08-08T08:22:24;24.80;99.90
21035;DHT22;10676;50.848;3.272;2023-08-08T08:24:49;24.80;99.90
21035;DHT22;10676;50.848;3.272;2023-08-08T08:27:17;24.90;99.90
21035;DHT22;10676;50.848;3.272;2023-08-08T08:29:44;25.00;99.90
21035;DHT22;10676;50.848;3.272;2023-08-08T08:32:10;25.20;99.90
21035;DHT22;10676;50.848;3.272;2023-08-08T08:34:36;25.90;99.90
21035;DHT22;10676;50.848;3.272;2023-08-08T08:37:02;26.40;99.90
21035;DHT22;10676;50.848;3.272;2023-08-08T08:39:27;27.20;99.90
21035;DHT22;10676;50.848;3.272;2023-08-08T08:41:58;27.50;98.70
21035;DHT22;10676;50.848;3.272;2023-08-08T08:44:27;27.50;98.60
21035;DHT22;10676;50.848;3.272;2023-08-08T08:46:56;27.30;97.40
21035;DHT22;10676;50.848;3.272;2023-08-08T08:49:25;27.00;97.70
21035;DHT22;10676;50.848;3.272;2023-08-08T08:51:52;26.80;98.00
21035;DHT22;10676;50.848;3.272;2023-08-08T08:54:18;26.90;97.80
21035;DHT22;10676;50.848;3.272;2023-08-08T08:56:45;27.30;97.20
21035;DHT22;10676;50.848;3.272;2023-08-08T08:59:10;27.40;95.90
21035;DHT22;10676;50.848;3.272;2023-08-08T09:01:39;27.10;96.80
21035;DHT22;10676;50.848;3.272;2023-08-08T09:04:07;26.70;96.80
21035;DHT22;10676;50.848;3.272;2023-08-08T09:06:46;26.30;97.30
21035;DHT22;10676;50.848;3.272;2023-08-08T09:09:12;26.00;97.40
21035;DHT22;10676;50.848;3.272;2023-08-08T09:11:53;25.60;98.80
21035;DHT22;10676;50.848;3.272;2023-08-08T09:14:24;25.30;99.70
21035;DHT22;10676;50.848;3.272;2023-08-08T09:16:54;25.10;99.40
21035;DHT22;10676;50.848;3.272;2023-08-08T09:19:20;25.00;98.80
21035;DHT22;10676;50.848;3.272;2023-08-08T09:21:49;24.70;99.90
21035;DHT22;10676;50.848;3.272;2023-08-08T09:24:15;24.30;99.90
21035;DHT22;10676;50.848;3.272;2023-08-08T09:26:42;23.80;99.90
21035;DHT22;10676;50.848;3.272;2023-08-08T09:29:10;23.30;99.90
21035;DHT22;10676;50.848;3.272;2023-08-08T09:31:35;22.80;99.90
21035;DHT22;10676;50.848;3.272;2023-08-08T09:34:03;22.40;99.90
21035;DHT22;10676;50.848;3.272;2023-08-08T09:36:28;22.10;99.90
21035;DHT22;10676;50.848;3.272;2023-08-08T09:38:58;21.80;99.90
21035;DHT22;10676;50.848;3.272;2023-08-08T09:41:24;21.60;99.90
21035;DHT22;10676;50.848;3.272;2023-08-08T09:43:54;21.60;99.90
21035;DHT22;10676;50.848;3.272;2023-08-08T09:46:20;21.80;99.90
21035;DHT22;10676;50.848;3.272;2023-08-08T09:48:46;22.10;99.90
21035;DHT22;10676;50.848;3.272;2023-08-08T09:51:12;22.70;99.90
21035;DHT22;10676;50.848;3.272;2023-08-08T09:53:40;23.10;99.90
21035;DHT22;10676;50.848;3.272;2023-08-08T09:56:06;23.50;99.90
21035;DHT22;10676;50.848;3.272;2023-08-08T09:58:39;23.80;99.90
21035;DHT22;10676;50.848;3.272;2023-08-08T10:01:06;24.00;99.90
21035;DHT22;10676;50.848;3.272;2023-08-08T10:03:32;24.10;99.90
21035;DHT22;10676;50.848;3.272;2023-08-08T10:05:58;24.30;99.90
21035;DHT22;10676;50.848;3.272;2023-08-08T10:08:24;24.60;99.90
21035;DHT22;10676;50.848;3.272;2023-08-08T10:10:50;25.20;99.90
21035;DHT22;10676;50.848;3.272;2023-08-08T10:13:25;25.40;99.20
21035;DHT22;10676;50.848;3.272;2023-08-08T10:15:52;25.60;98.60
21035;DHT22;10676;50.848;3.272;2023-08-08T10:18:20;25.50;98.60
21035;DHT22;10676;50.848;3.272;2023-08-08T10:20:50;25.40;99.30
21035;DHT22;10676;50.848;3.272;2023-08-08T10:23:20;25.20;98.40
21035;DHT22;10676;50.848;3.272;2023-08-08T10:25:48;25.20;98.70
21035;DHT22;10676;50.848;3.272;2023-08-08T10:28:19;25.20;98.80
21035;DHT22;10676;50.848;3.272;2023-08-08T10:31:03;25.20;98.40
21035;DHT22;10676;50.848;3.272;2023-08-08T10:33:50;25.30;97.40
21035;DHT22;10676;50.848;3.272;2023-08-08T10:36:26;25.30;96.50
21035;DHT22;10676;50.848;3.272;2023-08-08T10:38:52;25.10;96.30
21035;DHT22;10676;50.848;3.272;2023-08-08T10:41:26;25.00;96.80
21035;DHT22;10676;50.848;3.272;2023-08-08T10:43:57;25.10;96.40
21035;DHT22;10676;50.848;3.272;2023-08-08T10:46:33;25.20;96.60
21035;DHT22;10676;50.848;3.272;2023-08-08T10:49:05;25.20;95.70
21035;DHT22;10676;50.848;3.272;2023-08-08T10:51:39;25.00;96.20
21035;DHT22;10676;50.848;3.272;2023-08-08T10:54:26;25.00;96.80
21035;DHT22;10676;50.848;3.272;2023-08-08T10:56:56;25.30;96.00
21035;DHT22;10676;50.848;3.272;2023-08-08T10:59:24;25.50;95.10
21035;DHT22;10676;50.848;3.272;2023-08-08T11:01:51;25.70;95.40
21035;DHT22;10676;50.848;3.272;2023-08-08T11:04:23;25.80;94.60
21035;DHT22;10676;50.848;3.272;2023-08-08T11:06:49;26.00;94.40
21035;DHT22;10676;50.848;3.272;2023-08-08T11:09:16;25.90;94.40
21035;DHT22;10676;50.848;3.272;2023-08-08T11:11:43;25.90;94.50
21035;DHT22;10676;50.848;3.272;2023-08-08T11:14:21;25.80;94.60
21035;DHT22;10676;50.848;3.272;2023-08-08T11:16:48;25.80;94.20
21035;DHT22;10676;50.848;3.272;2023-08-08T11:19:17;25.80;94.70
21035;DHT22;10676;50.848;3.272;2023-08-08T11:21:47;25.70;94.60
21035;DHT22;10676;50.848;3.272;2023-08-08T11:24:13;25.60;93.70
21035;DHT22;10676;50.848;3.272;2023-08-08T11:26:41;25.30;94.30
21035;DHT22;10676;50.848;3.272;2023-08-08T11:29:09;25.00;95.00
21035;DHT22;10676;50.848;3.272;2023-08-08T11:31:37;24.80;95.10
21035;DHT22;10676;50.848;3.272;2023-08-08T11:34:04;24.60;95.90
21035;DHT22;10676;50.848;3.272;2023-08-08T11:36:34;24.40;96.40
21035;DHT22;10676;50.848;3.272;2023-08-08T11:39:02;24.50;96.20
21035;DHT22;10676;50.848;3.272;2023-08-08T11:41:34;24.70;95.80
21035;DHT22;10676;50.848;3.272;2023-08-08T11:43:59;24.90;94.60
21035;DHT22;10676;50.848;3.272;2023-08-08T11:46:25;25.00;94.90
21035;DHT22;10676;50.848;3.272;2023-08-08T11:48:51;25.00;94.60
21035;DHT22;10676;50.848;3.272;2023-08-08T11:51:17;25.00;94.70
21035;DHT22;10676;50.848;3.272;2023-08-08T11:53:51;24.90;94.90
21035;DHT22;10676;50.848;3.272;2023-08-08T11:56:21;25.10;94.80
21035;DHT22;10676;50.848;3.272;2023-08-08T11:58:49;25.20;94.50
21035;DHT22;10676;50.848;3.272;2023-08-08T12:01:21;25.30;94.50
21035;DHT22;10676;50.848;3.272;2023-08-08T12:03:47;25.40;94.50
21035;DHT22;10676;50.848;3.272;2023-08-08T12:06:14;25.40;94.80
21035;DHT22;10676;50.848;3.272;2023-08-08T12:08:44;25.60;94.50
21035;DHT22;10676;50.848;3.272;2023-08-08T12:11:11;25.80;94.00
21035;DHT22;10676;50.848;3.272;2023-08-08T12:13:38;26.00;93.70
21035;DHT22;10676;50.848;3.272;2023-08-08T12:16:09;26.10;93.80
21035;DHT22;10676;50.848;3.272;2023-08-08T12:18:38;26.30;94.00
21035;DHT22;10676;50.848;3.272;2023-08-08T12:21:05;26.50;93.70
21035;DHT22;10676;50.848;3.272;2023-08-08T12:23:32;26.60;93.40
21035;DHT22;10676;50.848;3.272;2023-08-08T12:25:59;26.90;93.20
21035;DHT22;10676;50.848;3.272;2023-08-08T12:28:25;27.20;92.30
21035;DHT22;10676;50.848;3.272;2023-08-08T12:30:51;27.30;91.90
21035;DHT22;10676;50.848;3.272;2023-08-08T12:33:16;27.20;92.30
21035;DHT22;10676;50.848;3.272;2023-08-08T12:35:42;26.90;92.80
21035;DHT22;10676;50.848;3.272;2023-08-08T12:38:08;26.80;93.20
21035;DHT22;10676;50.848;3.272;2023-08-08T12:40:35;26.70;92.80
21035;DHT22;10676;50.848;3.272;2023-08-08T12:43:01;26.60;92.90
21035;DHT22;10676;50.848;3.272;2023-08-08T12:45:27;26.30;93.30
21035;DHT22;10676;50.848;3.272;2023-08-08T12:47:52;26.00;94.00
21035;DHT22;10676;50.848;3.272;2023-08-08T12:50:18;25.70;94.40
21035;DHT22;10676;50.848;3.272;2023-08-08T12:52:44;25.50;94.90
21035;DHT22;10676;50.848;3.272;2023-08-08T12:55:12;25.30;95.10
21035;DHT22;10676;50.848;3.272;2023-08-08T12:57:40;25.00;95.60
21035;DHT22;10676;50.848;3.272;2023-08-08T13:00:06;24.70;96.10
21035;DHT22;10676;50.848;3.272;2023-08-08T13:02:37;24.30;97.00
21035;DHT22;10676;50.848;3.272;2023-08-08T13:05:03;23.90;97.50
21035;DHT22;10676;50.848;3.272;2023-08-08T13:07:29;23.60;98.40
21035;DHT22;10676;50.848;3.272;2023-08-08T13:09:55;23.50;99.40
21035;DHT22;10676;50.848;3.272;2023-08-08T13:12:20;23.40;99.20
21035;DHT22;10676;50.848;3.272;2023-08-08T13:14:47;23.20;99.90
21035;DHT22;10676;50.848;3.272;2023-08-08T13:17:12;23.10;99.90
21035;DHT22;10676;50.848;3.272;2023-08-08T13:19:39;23.20;99.90
21035;DHT22;10676;50.848;3.272;2023-08-08T13:22:05;23.30;99.90
21035;DHT22;10676;50.848;3.272;2023-08-08T13:24:35;23.50;99.90
21035;DHT22;10676;50.848;3.272;2023-08-08T13:27:01;23.60;99.90
21035;DHT22;10676;50.848;3.272;2023-08-08T13:29:27;23.60;99.90
21035;DHT22;10676;50.848;3.272;2023-08-08T13:31:52;23.50;99.90
21035;DHT22;10676;50.848;3.272;2023-08-08T13:34:18;23.40;99.90
21035;DHT22;10676;50.848;3.272;2023-08-08T13:36:44;23.30;99.90
21035;DHT22;10676;50.848;3.272;2023-08-08T13:39:10;23.30;99.90
21035;DHT22;10676;50.848;3.272;2023-08-08T13:41:35;23.40;99.90
21035;DHT22;10676;50.848;3.272;2023-08-08T13:44:01;23.60;99.90
21035;DHT22;10676;50.848;3.272;2023-08-08T13:46:27;23.80;99.90
21035;DHT22;10676;50.848;3.272;2023-08-08T13:48:52;23.90;99.90
21035;DHT22;10676;50.848;3.272;2023-08-08T13:51:18;23.90;99.90
21035;DHT22;10676;50.848;3.272;2023-08-08T13:53:44;23.70;99.90
21035;DHT22;10676;50.848;3.272;2023-08-08T13:56:10;23.40;99.90
21035;DHT22;10676;50.848;3.272;2023-08-08T13:58:36;23.10;99.90
21035;DHT22;10676;50.848;3.272;2023-08-08T14:01:02;22.70;99.90
21035;DHT22;10676;50.848;3.272;2023-08-08T14:03:28;22.20;99.90
21035;DHT22;10676;50.848;3.272;2023-08-08T14:05:53;21.80;99.90
21035;DHT22;10676;50.848;3.272;2023-08-08T14:08:19;21.50;99.90
21035;DHT22;10676;50.848;3.272;2023-08-08T14:10:46;21.10;99.90
21035;DHT22;10676;50.848;3.272;2023-08-08T14:13:12;20.80;99.90
21035;DHT22;10676;50.848;3.272;2023-08-08T14:15:38;20.50;99.90
21035;DHT22;10676;50.848;3.272;2023-08-08T14:18:04;20.30;99.90
21035;DHT22;10676;50.848;3.272;2023-08-08T14:20:30;20.10;99.90
21035;DHT22;10676;50.848;3.272;2023-08-08T14:22:56;19.90;99.90
21035;DHT22;10676;50.848;3.272;2023-08-08T14:25:34;19.80;99.90
21035;DHT22;10676;50.848;3.272;2023-08-08T14:27:59;19.60;99.90
21035;DHT22;10676;50.848;3.272;2023-08-08T14:30:26;19.40;99.90
21035;DHT22;10676;50.848;3.272;2023-08-08T14:32:53;19.20;99.90
21035;DHT22;10676;50.848;3.272;2023-08-08T14:35:19;19.10;99.90
21035;DHT22;10676;50.848;3.272;2023-08-08T14:37:45;18.90;99.90
21035;DHT22;10676;50.848;3.272;2023-08-08T14:40:11;18.80;99.90
21035;DHT22;10676;50.848;3.272;2023-08-08T14:42:37;18.80;99.90
21035;DHT22;10676;50.848;3.272;2023-08-08T14:45:03;18.90;99.90
21035;DHT22;10676;50.848;3.272;2023-08-08T14:47:31;19.00;99.90
21035;DHT22;10676;50.848;3.272;2023-08-08T14:49:57;19.00;99.90
21035;DHT22;10676;50.848;3.272;2023-08-08T14:52:22;19.00;99.90
21035;DHT22;10676;50.848;3.272;2023-08-08T14:54:49;19.10;99.90
21035;DHT22;10676;50.848;3.272;2023-08-08T14:57:15;19.10;99.90
21035;DHT22;10676;50.848;3.272;2023-08-08T14:59:40;19.10;99.90
21035;DHT22;10676;50.848;3.272;2023-08-08T15:02:06;19.10;99.90
21035;DHT22;10676;50.848;3.272;2023-08-08T15:04:32;19.00;99.90
21035;DHT22;10676;50.848;3.272;2023-08-08T15:06:58;19.00;99.90
21035;DHT22;10676;50.848;3.272;2023-08-08T15:09:34;19.00;99.90
21035;DHT22;10676;50.848;3.272;2023-08-08T15:12:00;18.90;99.90
21035;DHT22;10676;50.848;3.272;2023-08-08T15:14:26;18.90;99.90
21035;DHT22;10676;50.848;3.272;2023-08-08T15:16:53;18.90;99.90
21035;DHT22;10676;50.848;3.272;2023-08-08T15:19:19;18.90;99.90
21035;DHT22;10676;50.848;3.272;2023-08-08T15:21:45;18.90;99.90
21035;DHT22;10676;50.848;3.272;2023-08-08T15:24:11;18.90;99.90
21035;DHT22;10676;50.848;3.272;2023-08-08T15:26:36;18.80;99.90
21035;DHT22;10676;50.848;3.272;2023-08-08T15:29:04;18.80;99.90
21035;DHT22;10676;50.848;3.272;2023-08-08T15:31:30;18.70;99.90
21035;DHT22;10676;50.848;3.272;2023-08-08T15:33:58;18.70;99.90
21035;DHT22;10676;50.848;3.272;2023-08-08T15:36:24;18.60;99.90
21035;DHT22;10676;50.848;3.272;2023-08-08T15:38:49;18.70;99.90
21035;DHT22;10676;50.848;3.272;2023-08-08T15:41:15;18.70;99.90
21035;DHT22;10676;50.848;3.272;2023-08-08T15:43:40;18.80;99.90
21035;DHT22;10676;50.848;3.272;2023-08-08T15:46:06;18.70;99.90
21035;DHT22;10676;50.848;3.272;2023-08-08T15:48:33;18.70;99.90
21035;DHT22;10676;50.848;3.272;2023-08-08T15:50:58;18.60;99.90
21035;DHT22;10676;50.848;3.272;2023-08-08T15:53:24;18.50;99.90
21035;DHT22;10676;50.848;3.272;2023-08-08T15:55:50;18.30;99.90
21035;DHT22;10676;50.848;3.272;2023-08-08T15:58:15;18.20;99.90
21035;DHT22;10676;50.848;3.272;2023-08-08T16:00:41;18.10;99.90
21035;DHT22;10676;50.848;3.272;2023-08-08T16:03:07;18.00;99.90
21035;DHT22;10676;50.848;3.272;2023-08-08T16:05:32;17.90;99.90
21035;DHT22;10676;50.848;3.272;2023-08-08T16:07:58;17.90;99.90
21035;DHT22;10676;50.848;3.272;2023-08-08T16:10:26;17.80;99.90
21035;DHT22;10676;50.848;3.272;2023-08-08T16:12:51;17.90;99.90
21035;DHT22;10676;50.848;3.272;2023-08-08T16:15:17;17.90;99.90
21035;DHT22;10676;50.848;3.272;2023-08-08T16:17:43;17.90;99.90
21035;DHT22;10676;50.848;3.272;2023-08-08T16:20:10;17.90;99.90
21035;DHT22;10676;50.848;3.272;2023-08-08T16:22:35;17.90;99.90
21035;DHT22;10676;50.848;3.272;2023-08-08T16:25:01;18.00;99.90
21035;DHT22;10676;50.848;3.272;2023-08-08T16:27:28;18.00;99.90
21035;DHT22;10676;50.848;3.272;2023-08-08T16:29:54;18.10;99.90
21035;DHT22;10676;50.848;3.272;2023-08-08T16:32:19;18.20;99.90
21035;DHT22;10676;50.848;3.272;2023-08-08T16:34:45;18.30;99.90
21035;DHT22;10676;50.848;3.272;2023-08-08T16:37:11;18.30;99.90
21035;DHT22;10676;50.848;3.272;2023-08-08T16:39:37;18.40;99.90
21035;DHT22;10676;50.848;3.272;2023-08-08T16:42:02;18.40;99.90
21035;DHT22;10676;50.848;3.272;2023-08-08T16:44:28;18.50;99.90
21035;DHT22;10676;50.848;3.272;2023-08-08T16:46:54;18.50;99.90
21035;DHT22;10676;50.848;3.272;2023-08-08T16:49:19;18.50;99.90
21035;DHT22;10676;50.848;3.272;2023-08-08T16:51:46;18.50;99.90
21035;DHT22;10676;50.848;3.272;2023-08-08T16:54:12;18.30;99.90
21035;DHT22;10676;50.848;3.272;2023-08-08T16:56:37;18.30;99.90
21035;DHT22;10676;50.848;3.272;2023-08-08T16:59:03;18.10;99.90
21035;DHT22;10676;50.848;3.272;2023-08-08T17:01:29;17.90;99.90
21035;DHT22;10676;50.848;3.272;2023-08-08T17:03:56;17.80;99.90
21035;DHT22;10676;50.848;3.272;2023-08-08T17:06:22;17.80;99.90
21035;DHT22;10676;50.848;3.272;2023-08-08T17:08:47;17.80;99.90
21035;DHT22;10676;50.848;3.272;2023-08-08T17:11:13;17.70;99.90
21035;DHT22;10676;50.848;3.272;2023-08-08T17:13:39;17.70;99.90
21035;DHT22;10676;50.848;3.272;2023-08-08T17:16:05;17.70;99.90
21035;DHT22;10676;50.848;3.272;2023-08-08T17:18:31;17.70;99.90
21035;DHT22;10676;50.848;3.272;2023-08-08T17:20:57;17.70;99.90
21035;DHT22;10676;50.848;3.272;2023-08-08T17:23:23;17.70;99.90
21035;DHT22;10676;50.848;3.272;2023-08-08T17:25:49;17.80;99.90
21035;DHT22;10676;50.848;3.272;2023-08-08T17:28:16;17.80;99.90
21035;DHT22;10676;50.848;3.272;2023-08-08T17:30:41;17.90;99.90
21035;DHT22;10676;50.848;3.272;2023-08-08T17:33:07;17.90;99.90
21035;DHT22;10676;50.848;3.272;2023-08-08T17:35:35;17.90;99.90
21035;DHT22;10676;50.848;3.272;2023-08-08T17:38:02;17.90;99.90
21035;DHT22;10676;50.848;3.272;2023-08-08T17:40:28;17.80;99.90
21035;DHT22;10676;50.848;3.272;2023-08-08T17:42:53;17.80;99.90
21035;DHT22;10676;50.848;3.272;2023-08-08T17:45:19;17.90;99.90
21035;DHT22;10676;50.848;3.272;2023-08-08T17:47:53;17.80;99.90
21035;DHT22;10676;50.848;3.272;2023-08-08T17:50:18;17.90;99.90
21035;DHT22;10676;50.848;3.272;2023-08-08T17:52:44;17.80;99.90
21035;DHT22;10676;50.848;3.272;2023-08-08T17:55:10;17.70;99.90
21035;DHT22;10676;50.848;3.272;2023-08-08T17:57:35;17.60;99.90
21035;DHT22;10676;50.848;3.272;2023-08-08T18:00:01;17.50;99.90
21035;DHT22;10676;50.848;3.272;2023-08-08T18:02:27;17.40;99.90
21035;DHT22;10676;50.848;3.272;2023-08-08T18:04:53;17.30;99.90
21035;DHT22;10676;50.848;3.272;2023-08-08T18:07:19;17.20;99.90
21035;DHT22;10676;50.848;3.272;2023-08-08T18:09:47;17.10;99.90
21035;DHT22;10676;50.848;3.272;2023-08-08T18:12:13;17.00;99.90
21035;DHT22;10676;50.848;3.272;2023-08-08T18:14:39;17.00;99.90
21035;DHT22;10676;50.848;3.272;2023-08-08T18:17:06;17.00;99.90
21035;DHT22;10676;50.848;3.272;2023-08-08T18:19:31;16.90;99.90
21035;DHT22;10676;50.848;3.272;2023-08-08T18:21:57;16.80;99.90
21035;DHT22;10676;50.848;3.272;2023-08-08T18:24:24;16.80;99.90
21035;DHT22;10676;50.848;3.272;2023-08-08T18:26:49;16.80;99.90
21035;DHT22;10676;50.848;3.272;2023-08-08T18:29:15;16.80;99.90
21035;DHT22;10676;50.848;3.272;2023-08-08T18:31:41;16.80;99.90
21035;DHT22;10676;50.848;3.272;2023-08-08T18:34:07;16.80;99.90
21035;DHT22;10676;50.848;3.272;2023-08-08T18:36:32;16.80;99.90
21035;DHT22;10676;50.848;3.272;2023-08-08T18:38:59;16.80;99.90
21035;DHT22;10676;50.848;3.272;2023-08-08T18:41:25;16.80;99.90
21035;DHT22;10676;50.848;3.272;2023-08-08T18:43:51;16.90;99.90
21035;DHT22;10676;50.848;3.272;2023-08-08T18:46:17;16.90;99.90
21035;DHT22;10676;50.848;3.272;2023-08-08T18:48:44;16.90;99.90
21035;DHT22;10676;50.848;3.272;2023-08-08T18:51:10;16.80;99.90
21035;DHT22;10676;50.848;3.272;2023-08-08T18:53:35;16.80;99.90
21035;DHT22;10676;50.848;3.272;2023-08-08T18:56:02;16.70;99.90
21035;DHT22;10676;50.848;3.272;2023-08-08T18:58:27;16.70;99.90
21035;DHT22;10676;50.848;3.272;2023-08-08T19:00:53;16.70;99.90
21035;DHT22;10676;50.848;3.272;2023-08-08T19:03:19;16.70;99.90
21035;DHT22;10676;50.848;3.272;2023-08-08T19:05:45;16.70;99.90
21035;DHT22;10676;50.848;3.272;2023-08-08T19:08:10;16.70;99.90
21035;DHT22;10676;50.848;3.272;2023-08-08T19:10:36;16.70;99.90
21035;DHT22;10676;50.848;3.272;2023-08-08T19:13:02;16.70;99.90
21035;DHT22;10676;50.848;3.272;2023-08-08T19:15:27;16.70;99.90
21035;DHT22;10676;50.848;3.272;2023-08-08T19:17:53;16.70;99.90
21035;DHT22;10676;50.848;3.272;2023-08-08T19:20:19;16.70;99.90
21035;DHT22;10676;50.848;3.272;2023-08-08T19:22:44;16.70;99.90
21035;DHT22;10676;50.848;3.272;2023-08-08T19:25:11;16.70;99.90
21035;DHT22;10676;50.848;3.272;2023-08-08T19:27:37;16.80;99.90
21035;DHT22;10676;50.848;3.272;2023-08-08T19:30:03;16.80;99.90
21035;DHT22;10676;50.848;3.272;2023-08-08T19:32:29;16.80;99.90
21035;DHT22;10676;50.848;3.272;2023-08-08T19:34:54;16.80;99.90
21035;DHT22;10676;50.848;3.272;2023-08-08T19:37:21;16.70;99.90
21035;DHT22;10676;50.848;3.272;2023-08-08T19:39:47;16.70;99.90
21035;DHT22;10676;50.848;3.272;2023-08-08T19:42:13;16.70;99.90
21035;DHT22;10676;50.848;3.272;2023-08-08T19:44:38;16.70;99.90
21035;DHT22;10676;50.848;3.272;2023-08-08T19:47:04;16.70;99.90
21035;DHT22;10676;50.848;3.272;2023-08-08T19:49:30;16.70;99.90
21035;DHT22;10676;50.848;3.272;2023-08-08T19:51:58;16.70;99.90
21035;DHT22;10676;50.848;3.272;2023-08-08T19:54:25;16.70;99.90
21035;DHT22;10676;50.848;3.272;2023-08-08T19:56:51;16.70;99.90
21035;DHT22;10676;50.848;3.272;2023-08-08T19:59:16;16.70;99.90
21035;DHT22;10676;50.848;3.272;2023-08-08T20:01:42;16.70;99.90
21035;DHT22;10676;50.848;3.272;2023-08-08T20:04:08;16.70;99.90
21035;DHT22;10676;50.848;3.272;2023-08-08T20:06:33;16.70;99.90
21035;DHT22;10676;50.848;3.272;2023-08-08T20:09:00;16.80;99.90
21035;DHT22;10676;50.848;3.272;2023-08-08T20:11:26;16.70;99.90
21035;DHT22;10676;50.848;3.272;2023-08-08T20:13:52;16.70;99.90
21035;DHT22;10676;50.848;3.272;2023-08-08T20:16:17;16.80;99.90
21035;DHT22;10676;50.848;3.272;2023-08-08T20:18:43;16.80;99.90
21035;DHT22;10676;50.848;3.272;2023-08-08T20:21:09;16.80;99.90
21035;DHT22;10676;50.848;3.272;2023-08-08T20:23:34;16.80;99.90
21035;DHT22;10676;50.848;3.272;2023-08-08T20:26:00;16.90;99.90
21035;DHT22;10676;50.848;3.272;2023-08-08T20:28:28;16.90;99.90
21035;DHT22;10676;50.848;3.272;2023-08-08T20:30:53;17.00;99.90
21035;DHT22;10676;50.848;3.272;2023-08-08T20:33:19;17.10;99.90
21035;DHT22;10676;50.848;3.272;2023-08-08T20:35:45;17.20;99.90
21035;DHT22;10676;50.848;3.272;2023-08-08T20:38:11;17.20;99.90
21035;DHT22;10676;50.848;3.272;2023-08-08T20:40:37;17.30;99.90
21035;DHT22;10676;50.848;3.272;2023-08-08T20:43:03;17.30;99.90
21035;DHT22;10676;50.848;3.272;2023-08-08T20:45:28;17.40;99.90
21035;DHT22;10676;50.848;3.272;2023-08-08T20:47:54;17.50;99.90
21035;DHT22;10676;50.848;3.272;2023-08-08T20:50:20;17.50;99.90
21035;DHT22;10676;50.848;3.272;2023-08-08T20:52:47;17.50;99.90
21035;DHT22;10676;50.848;3.272;2023-08-08T20:55:13;17.60;99.90
21035;DHT22;10676;50.848;3.272;2023-08-08T20:57:39;17.60;99.90
21035;DHT22;10676;50.848;3.272;2023-08-08T21:00:05;17.60;99.90
21035;DHT22;10676;50.848;3.272;2023-08-08T21:02:33;17.60;99.90
21035;DHT22;10676;50.848;3.272;2023-08-08T21:04:58;17.60;99.90
21035;DHT22;10676;50.848;3.272;2023-08-08T21:07:24;17.70;99.90
21035;DHT22;10676;50.848;3.272;2023-08-08T21:09:51;17.70;99.90
21035;DHT22;10676;50.848;3.272;2023-08-08T21:12:17;17.60;99.90
21035;DHT22;10676;50.848;3.272;2023-08-08T21:14:42;17.60;99.90
21035;DHT22;10676;50.848;3.272;2023-08-08T21:17:09;17.60;99.90
21035;DHT22;10676;50.848;3.272;2023-08-08T21:19:34;17.50;99.90
21035;DHT22;10676;50.848;3.272;2023-08-08T21:22:00;17.50;99.90
21035;DHT22;10676;50.848;3.272;2023-08-08T21:24:26;17.50;99.90
21035;DHT22;10676;50.848;3.272;2023-08-08T21:26:52;17.40;99.90
21035;DHT22;10676;50.848;3.272;2023-08-08T21:29:18;17.40;99.90
21035;DHT22;10676;50.848;3.272;2023-08-08T21:31:43;17.40;99.90
21035;DHT22;10676;50.848;3.272;2023-08-08T21:34:11;17.30;99.90
21035;DHT22;10676;50.848;3.272;2023-08-08T21:36:37;17.30;99.90
21035;DHT22;10676;50.848;3.272;2023-08-08T21:39:02;17.30;99.90
21035;DHT22;10676;50.848;3.272;2023-08-08T21:41:28;17.30;99.90
21035;DHT22;10676;50.848;3.272;2023-08-08T21:43:54;17.20;99.90
21035;DHT22;10676;50.848;3.272;2023-08-08T21:46:20;17.30;99.90
21035;DHT22;10676;50.848;3.272;2023-08-08T21:48:46;17.30;99.90
21035;DHT22;10676;50.848;3.272;2023-08-08T21:51:11;17.30;99.90
21035;DHT22;10676;50.848;3.272;2023-08-08T21:53:38;17.30;99.90